sensor_id;sensor_type;location;lat;lon;timestamp;temperature;humidity
48994;DHT22;34804;49.214;12.276;2023-02-12T00:01:19;1.60;89.00
48994;DHT22;34804;49.214;12.276;2023-02-12T00:03:46;1.50;89.80
48994;DHT22;34804;49.214;12.276;2023-02-12T00:06:13;1.50;89.90
48994;DHT22;34804;49.214;12.276;2023-02-12T00:08:42;1.50;90.30
48994;DHT22;34804;49.214;12.276;2023-02-12T00:11:14;1.50;90.30
48994;DHT22;34804;49.214;12.276;2023-02-12T00:13:41;1.50;90.10
48994;DHT22;34804;49.214;12.276;2023-02-12T00:16:11;1.60;89.90
48994;DHT22;34804;49.214;12.276;2023-02-12T00:18:38;1.60;89.80
48994;DHT22;34804;49.214;12.276;2023-02-12T00:21:05;1.60;89.70
48994;DHT22;34804;49.214;12.276;2023-02-12T00:23:34;1.60;89.60
48994;DHT22;34804;49.214;12.276;2023-02-12T00:26:06;1.60;89.40
48994;DHT22;34804;49.214;12.276;2023-02-12T00:28:33;1.70;89.40
48994;DHT22;34804;49.214;12.276;2023-02-12T00:31:08;1.60;89.60
48994;DHT22;34804;49.214;12.276;2023-02-12T00:33:35;1.60;89.60
48994;DHT22;34804;49.214;12.276;2023-02-12T00:36:03;1.60;89.60
48994;DHT22;34804;49.214;12.276;2023-02-12T00:38:30;1.60;89.80
48994;DHT22;34804;49.214;12.276;2023-02-12T00:40:57;1.60;90.00
48994;DHT22;34804;49.214;12.276;2023-02-12T00:43:24;1.60;89.90
48994;DHT22;34804;49.214;12.276;2023-02-12T00:45:51;1.70;90.00
48994;DHT22;34804;49.214;12.276;2023-02-12T00:48:18;1.70;90.00
48994;DHT22;34804;49.214;12.276;2023-02-12T00:50:46;1.70;90.10
48994;DHT22;34804;49.214;12.276;2023-02-12T00:53:13;1.70;90.00
48994;DHT22;34804;49.214;12.276;2023-02-12T00:55:40;1.80;89.90
48994;DHT22;34804;49.214;12.276;2023-02-12T00:58:07;1.80;89.80
48994;DHT22;34804;49.214;12.276;2023-02-12T01:00:34;1.80;89.70
48994;DHT22;34804;49.214;12.276;2023-02-12T01:03:01;1.70;89.60
48994;DHT22;34804;49.214;12.276;2023-02-12T01:05:29;1.70;89.70
48994;DHT22;34804;49.214;12.276;2023-02-12T01:07:56;1.70;89.70
48994;DHT22;34804;49.214;12.276;2023-02-12T01:10:23;1.70;89.70
48994;DHT22;34804;49.214;12.276;2023-02-12T01:12:50;1.70;89.80
48994;DHT22;34804;49.214;12.276;2023-02-12T01:15:17;1.70;89.90
48994;DHT22;34804;49.214;12.276;2023-02-12T01:17:44;1.80;89.80
48994;DHT22;34804;49.214;12.276;2023-02-12T01:20:15;1.80;89.60
48994;DHT22;34804;49.214;12.276;2023-02-12T01:22:45;1.80;89.70
48994;DHT22;34804;49.214;12.276;2023-02-12T01:25:12;1.80;89.60
48994;DHT22;34804;49.214;12.276;2023-02-12T01:27:39;1.80;89.50
48994;DHT22;34804;49.214;12.276;2023-02-12T01:30:08;1.80;89.70
48994;DHT22;34804;49.214;12.276;2023-02-12T01:32:36;1.80;90.00
48994;DHT22;34804;49.214;12.276;2023-02-12T01:35:03;1.80;90.00
48994;DHT22;34804;49.214;12.276;2023-02-12T01:37:30;1.80;90.20
48994;DHT22;34804;49.214;12.276;2023-02-12T01:39:57;1.70;90.30
48994;DHT22;34804;49.214;12.276;2023-02-12T01:42:24;1.70;90.40
48994;DHT22;34804;49.214;12.276;2023-02-12T01:47:43;1.60;90.40
48994;DHT22;34804;49.214;12.276;2023-02-12T01:50:16;1.70;90.40
48994;DHT22;34804;49.214;12.276;2023-02-12T01:52:53;1.70;90.40
48994;DHT22;34804;49.214;12.276;2023-02-12T01:55:21;1.70;90.30
48994;DHT22;34804;49.214;12.276;2023-02-12T01:57:49;1.70;90.30
48994;DHT22;34804;49.214;12.276;2023-02-12T02:00:22;1.60;90.30
48994;DHT22;34804;49.214;12.276;2023-02-12T02:02:57;1.60;90.30
48994;DHT22;34804;49.214;12.276;2023-02-12T02:05:48;1.60;90.30
48994;DHT22;34804;49.214;12.276;2023-02-12T02:08:16;1.60;90.30
48994;DHT22;34804;49.214;12.276;2023-02-12T02:10:43;1.70;90.30
48994;DHT22;34804;49.214;12.276;2023-02-12T02:13:10;1.70;90.20
48994;DHT22;34804;49.214;12.276;2023-02-12T02:15:58;1.80;90.20
48994;DHT22;34804;49.214;12.276;2023-02-12T02:18:37;1.70;90.30
48994;DHT22;34804;49.214;12.276;2023-02-12T02:21:25;1.70;90.40
48994;DHT22;34804;49.214;12.276;2023-02-12T02:32:24;1.60;91.10
48994;DHT22;34804;49.214;12.276;2023-02-12T02:35:01;1.60;91.00
48994;DHT22;34804;49.214;12.276;2023-02-12T02:37:55;1.60;91.00
48994;DHT22;34804;49.214;12.276;2023-02-12T02:40:25;1.60;91.00
48994;DHT22;34804;49.214;12.276;2023-02-12T02:45:33;1.60;91.00
48994;DHT22;34804;49.214;12.276;2023-02-12T02:48:21;1.60;91.00
48994;DHT22;34804;49.214;12.276;2023-02-12T02:50:56;1.60;91.20
48994;DHT22;34804;49.214;12.276;2023-02-12T02:53:31;1.60;91.20
48994;DHT22;34804;49.214;12.276;2023-02-12T02:56:01;1.60;91.30
48994;DHT22;34804;49.214;12.276;2023-02-12T02:58:38;1.60;91.30
48994;DHT22;34804;49.214;12.276;2023-02-12T03:01:16;1.60;91.30
48994;DHT22;34804;49.214;12.276;2023-02-12T03:04:05;1.60;91.40
48994;DHT22;34804;49.214;12.276;2023-02-12T03:09:20;1.50;91.90
48994;DHT22;34804;49.214;12.276;2023-02-12T03:11:48;1.50;92.20
48994;DHT22;34804;49.214;12.276;2023-02-12T03:14:24;1.50;92.40
48994;DHT22;34804;49.214;12.276;2023-02-12T03:17:09;1.50;92.50
48994;DHT22;34804;49.214;12.276;2023-02-12T03:19:41;1.50;92.60
48994;DHT22;34804;49.214;12.276;2023-02-12T03:22:17;1.60;92.60
48994;DHT22;34804;49.214;12.276;2023-02-12T03:24:53;1.60;92.50
48994;DHT22;34804;49.214;12.276;2023-02-12T03:27:40;1.60;92.50
48994;DHT22;34804;49.214;12.276;2023-02-12T03:30:08;1.50;92.60
48994;DHT22;34804;49.214;12.276;2023-02-12T03:32:49;1.60;92.60
48994;DHT22;34804;49.214;12.276;2023-02-12T03:35:29;1.50;92.70
48994;DHT22;34804;49.214;12.276;2023-02-12T03:41:13;1.60;92.80
48994;DHT22;34804;49.214;12.276;2023-02-12T03:43:47;1.50;92.90
48994;DHT22;34804;49.214;12.276;2023-02-12T03:46:26;1.50;92.90
48994;DHT22;34804;49.214;12.276;2023-02-12T03:51:57;1.50;93.00
48994;DHT22;34804;49.214;12.276;2023-02-12T03:54:25;1.50;93.00
48994;DHT22;34804;49.214;12.276;2023-02-12T03:56:53;1.50;93.00
48994;DHT22;34804;49.214;12.276;2023-02-12T03:59:22;1.50;92.90
48994;DHT22;34804;49.214;12.276;2023-02-12T04:01:51;1.50;93.00
48994;DHT22;34804;49.214;12.276;2023-02-12T04:04:19;1.60;92.90
48994;DHT22;34804;49.214;12.276;2023-02-12T04:06:48;1.60;92.90
48994;DHT22;34804;49.214;12.276;2023-02-12T04:09:16;1.60;92.90
48994;DHT22;34804;49.214;12.276;2023-02-12T04:14:14;1.60;92.80
48994;DHT22;34804;49.214;12.276;2023-02-12T04:17:11;1.60;92.70
48994;DHT22;34804;49.214;12.276;2023-02-12T04:20:55;1.60;92.70
48994;DHT22;34804;49.214;12.276;2023-02-12T04:25:39;1.60;92.80
48994;DHT22;34804;49.214;12.276;2023-02-12T04:31:25;1.60;92.70
48994;DHT22;34804;49.214;12.276;2023-02-12T04:34:17;1.60;92.60
48994;DHT22;34804;49.214;12.276;2023-02-12T04:36:52;1.60;92.70
48994;DHT22;34804;49.214;12.276;2023-02-12T04:39:24;1.60;92.80
48994;DHT22;34804;49.214;12.276;2023-02-12T04:41:52;1.60;92.80
48994;DHT22;34804;49.214;12.276;2023-02-12T04:44:28;1.60;92.90
48994;DHT22;34804;49.214;12.276;2023-02-12T04:46:55;1.60;92.70
48994;DHT22;34804;49.214;12.276;2023-02-12T04:49:23;1.60;92.70
48994;DHT22;34804;49.214;12.276;2023-02-12T04:51:50;1.50;92.80
48994;DHT22;34804;49.214;12.276;2023-02-12T04:54:18;1.60;92.90
48994;DHT22;34804;49.214;12.276;2023-02-12T04:56:46;1.60;92.90
48994;DHT22;34804;49.214;12.276;2023-02-12T04:59:14;1.60;92.90
48994;DHT22;34804;49.214;12.276;2023-02-12T05:01:41;1.60;92.90
48994;DHT22;34804;49.214;12.276;2023-02-12T05:04:11;1.60;92.80
48994;DHT22;34804;49.214;12.276;2023-02-12T05:06:39;1.60;93.00
48994;DHT22;34804;49.214;12.276;2023-02-12T05:09:07;1.60;93.00
48994;DHT22;34804;49.214;12.276;2023-02-12T05:11:34;1.60;93.10
48994;DHT22;34804;49.214;12.276;2023-02-12T05:14:01;1.60;93.10
48994;DHT22;34804;49.214;12.276;2023-02-12T05:16:28;1.60;93.10
48994;DHT22;34804;49.214;12.276;2023-02-12T05:18:54;1.70;93.10
48994;DHT22;34804;49.214;12.276;2023-02-12T05:21:21;1.70;92.90
48994;DHT22;34804;49.214;12.276;2023-02-12T05:23:48;1.70;92.90
48994;DHT22;34804;49.214;12.276;2023-02-12T05:26:17;1.70;92.50
48994;DHT22;34804;49.214;12.276;2023-02-12T05:28:44;1.70;92.60
48994;DHT22;34804;49.214;12.276;2023-02-12T05:31:14;1.60;92.70
48994;DHT22;34804;49.214;12.276;2023-02-12T05:33:45;1.60;92.60
48994;DHT22;34804;49.214;12.276;2023-02-12T05:36:15;1.60;92.60
48994;DHT22;34804;49.214;12.276;2023-02-12T05:38:42;1.60;92.60
48994;DHT22;34804;49.214;12.276;2023-02-12T05:41:18;1.70;92.60
48994;DHT22;34804;49.214;12.276;2023-02-12T05:43:46;1.70;92.50
48994;DHT22;34804;49.214;12.276;2023-02-12T05:46:19;1.70;92.60
48994;DHT22;34804;49.214;12.276;2023-02-12T05:48:46;1.70;92.60
48994;DHT22;34804;49.214;12.276;2023-02-12T05:51:18;1.60;92.70
48994;DHT22;34804;49.214;12.276;2023-02-12T05:53:48;1.70;92.80
48994;DHT22;34804;49.214;12.276;2023-02-12T05:56:24;1.70;92.80
48994;DHT22;34804;49.214;12.276;2023-02-12T05:58:53;1.60;92.90
48994;DHT22;34804;49.214;12.276;2023-02-12T06:01:24;1.60;92.90
48994;DHT22;34804;49.214;12.276;2023-02-12T06:03:51;1.60;93.00
48994;DHT22;34804;49.214;12.276;2023-02-12T06:06:18;1.60;93.00
48994;DHT22;34804;49.214;12.276;2023-02-12T06:08:48;1.60;93.00
48994;DHT22;34804;49.214;12.276;2023-02-12T06:11:15;1.60;93.00
48994;DHT22;34804;49.214;12.276;2023-02-12T06:13:43;1.60;93.10
48994;DHT22;34804;49.214;12.276;2023-02-12T06:16:23;1.60;93.00
48994;DHT22;34804;49.214;12.276;2023-02-12T06:18:51;1.60;92.90
48994;DHT22;34804;49.214;12.276;2023-02-12T06:21:23;1.60;92.90
48994;DHT22;34804;49.214;12.276;2023-02-12T06:23:51;1.60;92.80
48994;DHT22;34804;49.214;12.276;2023-02-12T06:26:19;1.60;92.80
48994;DHT22;34804;49.214;12.276;2023-02-12T06:28:46;1.70;92.80
48994;DHT22;34804;49.214;12.276;2023-02-12T06:31:22;1.70;92.70
48994;DHT22;34804;49.214;12.276;2023-02-12T06:33:50;1.70;92.60
48994;DHT22;34804;49.214;12.276;2023-02-12T06:36:18;1.70;92.60
48994;DHT22;34804;49.214;12.276;2023-02-12T06:38:45;1.70;92.60
48994;DHT22;34804;49.214;12.276;2023-02-12T06:41:12;1.80;92.60
48994;DHT22;34804;49.214;12.276;2023-02-12T06:43:38;1.70;92.60
48994;DHT22;34804;49.214;12.276;2023-02-12T06:46:06;1.80;92.70
48994;DHT22;34804;49.214;12.276;2023-02-12T06:48:34;1.80;92.70
48994;DHT22;34804;49.214;12.276;2023-02-12T06:51:14;1.80;92.50
48994;DHT22;34804;49.214;12.276;2023-02-12T06:53:42;1.80;92.50
48994;DHT22;34804;49.214;12.276;2023-02-12T06:56:11;1.80;92.60
48994;DHT22;34804;49.214;12.276;2023-02-12T06:58:44;1.80;92.60
48994;DHT22;34804;49.214;12.276;2023-02-12T07:01:15;1.80;92.60
48994;DHT22;34804;49.214;12.276;2023-02-12T07:03:47;1.80;92.50
48994;DHT22;34804;49.214;12.276;2023-02-12T07:06:15;1.80;92.50
48994;DHT22;34804;49.214;12.276;2023-02-12T07:08:42;1.90;92.40
48994;DHT22;34804;49.214;12.276;2023-02-12T07:11:09;1.80;92.40
48994;DHT22;34804;49.214;12.276;2023-02-12T07:13:36;1.90;92.30
48994;DHT22;34804;49.214;12.276;2023-02-12T07:16:04;1.90;92.50
48994;DHT22;34804;49.214;12.276;2023-02-12T07:18:35;1.90;92.40
48994;DHT22;34804;49.214;12.276;2023-02-12T07:21:04;1.90;92.30
48994;DHT22;34804;49.214;12.276;2023-02-12T07:23:32;1.90;92.30
48994;DHT22;34804;49.214;12.276;2023-02-12T07:26:04;1.90;92.30
48994;DHT22;34804;49.214;12.276;2023-02-12T07:28:32;1.90;92.30
48994;DHT22;34804;49.214;12.276;2023-02-12T07:33:35;2.10;92.30
48994;DHT22;34804;49.214;12.276;2023-02-12T07:36:04;2.20;92.30
48994;DHT22;34804;49.214;12.276;2023-02-12T07:38:30;2.30;92.20
48994;DHT22;34804;49.214;12.276;2023-02-12T07:41:08;2.30;92.20
48994;DHT22;34804;49.214;12.276;2023-02-12T07:43:37;2.40;91.80
48994;DHT22;34804;49.214;12.276;2023-02-12T07:46:27;2.30;91.60
48994;DHT22;34804;49.214;12.276;2023-02-12T07:48:56;2.30;91.80
48994;DHT22;34804;49.214;12.276;2023-02-12T07:51:24;2.40;92.00
48994;DHT22;34804;49.214;12.276;2023-02-12T07:53:52;2.50;92.00
48994;DHT22;34804;49.214;12.276;2023-02-12T07:56:22;2.60;91.80
48994;DHT22;34804;49.214;12.276;2023-02-12T07:58:50;2.60;91.60
48994;DHT22;34804;49.214;12.276;2023-02-12T08:01:21;2.70;91.60
48994;DHT22;34804;49.214;12.276;2023-02-12T08:03:49;2.60;91.60
48994;DHT22;34804;49.214;12.276;2023-02-12T08:06:21;2.60;91.60
48994;DHT22;34804;49.214;12.276;2023-02-12T08:08:56;2.70;91.80
48994;DHT22;34804;49.214;12.276;2023-02-12T08:11:25;2.80;91.70
48994;DHT22;34804;49.214;12.276;2023-02-12T08:13:52;2.80;91.70
48994;DHT22;34804;49.214;12.276;2023-02-12T08:16:21;2.90;91.60
48994;DHT22;34804;49.214;12.276;2023-02-12T08:18:49;2.90;91.80
48994;DHT22;34804;49.214;12.276;2023-02-12T08:21:18;3.00;91.80
48994;DHT22;34804;49.214;12.276;2023-02-12T08:23:45;3.10;91.70
48994;DHT22;34804;49.214;12.276;2023-02-12T08:26:15;3.20;91.70
48994;DHT22;34804;49.214;12.276;2023-02-12T08:28:45;3.30;91.80
48994;DHT22;34804;49.214;12.276;2023-02-12T08:31:15;3.40;91.60
48994;DHT22;34804;49.214;12.276;2023-02-12T08:33:43;3.40;91.40
48994;DHT22;34804;49.214;12.276;2023-02-12T08:36:13;3.40;91.40
48994;DHT22;34804;49.214;12.276;2023-02-12T08:38:41;3.50;91.70
48994;DHT22;34804;49.214;12.276;2023-02-12T08:41:11;3.50;91.80
48994;DHT22;34804;49.214;12.276;2023-02-12T08:43:39;3.60;91.70
48994;DHT22;34804;49.214;12.276;2023-02-12T08:46:15;3.70;91.80
48994;DHT22;34804;49.214;12.276;2023-02-12T08:48:43;3.80;91.90
48994;DHT22;34804;49.214;12.276;2023-02-12T08:51:18;3.80;91.90
48994;DHT22;34804;49.214;12.276;2023-02-12T08:53:47;4.00;91.80
48994;DHT22;34804;49.214;12.276;2023-02-12T08:56:16;4.10;91.20
48994;DHT22;34804;49.214;12.276;2023-02-12T08:58:44;4.30;91.00
48994;DHT22;34804;49.214;12.276;2023-02-12T09:01:14;4.50;91.10
48994;DHT22;34804;49.214;12.276;2023-02-12T09:03:43;4.70;90.40
48994;DHT22;34804;49.214;12.276;2023-02-12T09:06:11;4.60;89.50
48994;DHT22;34804;49.214;12.276;2023-02-12T09:08:38;4.70;89.50
48994;DHT22;34804;49.214;12.276;2023-02-12T09:11:08;4.80;89.30
48994;DHT22;34804;49.214;12.276;2023-02-12T09:13:36;4.80;89.50
48994;DHT22;34804;49.214;12.276;2023-02-12T09:16:03;4.80;89.20
48994;DHT22;34804;49.214;12.276;2023-02-12T09:18:31;4.90;89.00
48994;DHT22;34804;49.214;12.276;2023-02-12T09:21:04;4.90;89.20
48994;DHT22;34804;49.214;12.276;2023-02-12T09:23:31;5.00;89.10
48994;DHT22;34804;49.214;12.276;2023-02-12T09:25:58;5.20;88.90
48994;DHT22;34804;49.214;12.276;2023-02-12T09:28:25;5.30;88.80
48994;DHT22;34804;49.214;12.276;2023-02-12T09:30:52;5.40;88.40
48994;DHT22;34804;49.214;12.276;2023-02-12T09:33:19;5.50;88.20
48994;DHT22;34804;49.214;12.276;2023-02-12T09:35:46;5.50;88.10
48994;DHT22;34804;49.214;12.276;2023-02-12T09:38:13;5.60;88.20
48994;DHT22;34804;49.214;12.276;2023-02-12T09:43:51;5.80;88.00
48994;DHT22;34804;49.214;12.276;2023-02-12T09:46:32;5.90;87.70
48994;DHT22;34804;49.214;12.276;2023-02-12T09:51:49;6.00;87.30
48994;DHT22;34804;49.214;12.276;2023-02-12T09:54:27;6.20;86.40
48994;DHT22;34804;49.214;12.276;2023-02-12T09:56:58;6.30;85.80
48994;DHT22;34804;49.214;12.276;2023-02-12T09:59:40;6.20;85.80
48994;DHT22;34804;49.214;12.276;2023-02-12T10:02:17;6.00;86.00
48994;DHT22;34804;49.214;12.276;2023-02-12T10:04:46;6.10;85.90
48994;DHT22;34804;49.214;12.276;2023-02-12T10:07:34;6.10;86.30
48994;DHT22;34804;49.214;12.276;2023-02-12T10:10:09;6.20;86.20
48994;DHT22;34804;49.214;12.276;2023-02-12T10:23:35;6.90;84.60
48994;DHT22;34804;49.214;12.276;2023-02-12T10:26:21;6.80;84.40
48994;DHT22;34804;49.214;12.276;2023-02-12T10:28:52;7.10;84.60
48994;DHT22;34804;49.214;12.276;2023-02-12T10:31:30;7.30;83.50
48994;DHT22;34804;49.214;12.276;2023-02-12T10:33:58;7.60;82.90
48994;DHT22;34804;49.214;12.276;2023-02-12T10:36:46;7.60;82.20
48994;DHT22;34804;49.214;12.276;2023-02-12T10:39:28;7.30;82.10
48994;DHT22;34804;49.214;12.276;2023-02-12T10:42:33;7.30;83.20
48994;DHT22;34804;49.214;12.276;2023-02-12T10:45:03;7.20;83.00
48994;DHT22;34804;49.214;12.276;2023-02-12T10:47:30;7.10;83.10
48994;DHT22;34804;49.214;12.276;2023-02-12T10:49:59;7.10;82.70
48994;DHT22;34804;49.214;12.276;2023-02-12T10:52:44;7.10;82.80
48994;DHT22;34804;49.214;12.276;2023-02-12T10:55:28;7.10;83.20
48994;DHT22;34804;49.214;12.276;2023-02-12T10:57:56;7.40;83.10
48994;DHT22;34804;49.214;12.276;2023-02-12T11:00:28;7.80;82.40
48994;DHT22;34804;49.214;12.276;2023-02-12T11:05:42;7.80;81.90
48994;DHT22;34804;49.214;12.276;2023-02-12T11:08:32;7.80;81.60
48994;DHT22;34804;49.214;12.276;2023-02-12T11:11:04;7.80;81.10
48994;DHT22;34804;49.214;12.276;2023-02-12T11:13:32;8.00;81.60
48994;DHT22;34804;49.214;12.276;2023-02-12T11:15:59;8.10;80.30
48994;DHT22;34804;49.214;12.276;2023-02-12T11:18:29;8.10;80.40
48994;DHT22;34804;49.214;12.276;2023-02-12T11:21:04;7.60;81.00
48994;DHT22;34804;49.214;12.276;2023-02-12T11:23:37;7.40;81.60
48994;DHT22;34804;49.214;12.276;2023-02-12T11:29:21;7.40;82.00
48994;DHT22;34804;49.214;12.276;2023-02-12T11:32:02;7.80;82.30
48994;DHT22;34804;49.214;12.276;2023-02-12T11:34:30;8.00;81.10
48994;DHT22;34804;49.214;12.276;2023-02-12T11:36:58;8.30;79.90
48994;DHT22;34804;49.214;12.276;2023-02-12T11:39:37;8.30;79.20
48994;DHT22;34804;49.214;12.276;2023-02-12T11:42:19;8.30;79.50
48994;DHT22;34804;49.214;12.276;2023-02-12T11:44:51;8.30;79.40
48994;DHT22;34804;49.214;12.276;2023-02-12T11:47:23;8.50;78.80
48994;DHT22;34804;49.214;12.276;2023-02-12T11:49:58;8.60;78.20
48994;DHT22;34804;49.214;12.276;2023-02-12T11:52:30;8.70;77.70
48994;DHT22;34804;49.214;12.276;2023-02-12T11:55:02;8.70;76.90
48994;DHT22;34804;49.214;12.276;2023-02-12T11:57:38;8.60;77.00
48994;DHT22;34804;49.214;12.276;2023-02-12T12:00:14;8.50;77.50
48994;DHT22;34804;49.214;12.276;2023-02-12T12:02:47;8.80;78.00
48994;DHT22;34804;49.214;12.276;2023-02-12T12:05:18;9.00;76.40
48994;DHT22;34804;49.214;12.276;2023-02-12T12:07:51;8.90;75.40
48994;DHT22;34804;49.214;12.276;2023-02-12T12:10:30;9.10;75.80
48994;DHT22;34804;49.214;12.276;2023-02-12T12:13:04;9.00;76.00
48994;DHT22;34804;49.214;12.276;2023-02-12T12:15:46;9.20;75.10
48994;DHT22;34804;49.214;12.276;2023-02-12T12:18:46;9.50;73.90
48994;DHT22;34804;49.214;12.276;2023-02-12T12:21:44;9.60;72.80
48994;DHT22;34804;49.214;12.276;2023-02-12T12:24:22;9.50;72.40
48994;DHT22;34804;49.214;12.276;2023-02-12T12:27:23;9.40;72.90
48994;DHT22;34804;49.214;12.276;2023-02-12T12:30:21;9.40;72.70
48994;DHT22;34804;49.214;12.276;2023-02-12T12:32:50;9.30;72.10
48994;DHT22;34804;49.214;12.276;2023-02-12T12:35:27;9.30;72.80
48994;DHT22;34804;49.214;12.276;2023-02-12T12:38:16;9.30;73.40
48994;DHT22;34804;49.214;12.276;2023-02-12T12:40:58;9.40;72.10
48994;DHT22;34804;49.214;12.276;2023-02-12T12:43:56;9.40;72.60
48994;DHT22;34804;49.214;12.276;2023-02-12T12:46:33;9.50;72.50
48994;DHT22;34804;49.214;12.276;2023-02-12T12:52:15;9.20;71.40
48994;DHT22;34804;49.214;12.276;2023-02-12T12:57:53;9.10;72.00
48994;DHT22;34804;49.214;12.276;2023-02-12T13:03:28;8.80;72.50
48994;DHT22;34804;49.214;12.276;2023-02-12T13:09:23;8.80;72.60
48994;DHT22;34804;49.214;12.276;2023-02-12T13:17:11;9.00;72.70
48994;DHT22;34804;49.214;12.276;2023-02-12T13:22:23;9.10;72.70
48994;DHT22;34804;49.214;12.276;2023-02-12T13:27:35;9.10;72.80
48994;DHT22;34804;49.214;12.276;2023-02-12T13:30:16;9.00;72.10
48994;DHT22;34804;49.214;12.276;2023-02-12T13:33:00;8.90;72.60
48994;DHT22;34804;49.214;12.276;2023-02-12T13:35:28;8.80;73.50
48994;DHT22;34804;49.214;12.276;2023-02-12T13:37:58;8.90;73.40
48994;DHT22;34804;49.214;12.276;2023-02-12T13:40:27;9.00;73.40
48994;DHT22;34804;49.214;12.276;2023-02-12T13:46:07;9.00;73.60
48994;DHT22;34804;49.214;12.276;2023-02-12T13:48:49;8.90;75.40
48994;DHT22;34804;49.214;12.276;2023-02-12T14:05:00;8.60;76.50
48994;DHT22;34804;49.214;12.276;2023-02-12T14:07:50;8.50;76.20
48994;DHT22;34804;49.214;12.276;2023-02-12T14:10:38;8.50;76.70
48994;DHT22;34804;49.214;12.276;2023-02-12T14:13:12;8.50;76.90
48994;DHT22;34804;49.214;12.276;2023-02-12T14:15:43;8.60;77.20
48994;DHT22;34804;49.214;12.276;2023-02-12T14:23:40;8.60;76.90
48994;DHT22;34804;49.214;12.276;2023-02-12T14:26:16;8.60;76.80
48994;DHT22;34804;49.214;12.276;2023-02-12T14:28:53;8.70;76.80
48994;DHT22;34804;49.214;12.276;2023-02-12T14:31:32;8.60;76.30
48994;DHT22;34804;49.214;12.276;2023-02-12T14:46:59;8.50;76.80
48994;DHT22;34804;49.214;12.276;2023-02-12T14:49:49;8.70;76.50
48994;DHT22;34804;49.214;12.276;2023-02-12T14:52:24;8.80;75.90
48994;DHT22;34804;49.214;12.276;2023-02-12T14:54:58;8.90;75.40
48994;DHT22;34804;49.214;12.276;2023-02-12T14:57:34;8.80;75.30
48994;DHT22;34804;49.214;12.276;2023-02-12T15:03:12;8.80;75.10
48994;DHT22;34804;49.214;12.276;2023-02-12T15:05:43;8.80;75.40
48994;DHT22;34804;49.214;12.276;2023-02-12T15:10:56;8.40;76.30
48994;DHT22;34804;49.214;12.276;2023-02-12T15:22:21;8.10;77.60
48994;DHT22;34804;49.214;12.276;2023-02-12T15:24:49;8.00;77.90
48994;DHT22;34804;49.214;12.276;2023-02-12T15:27:17;8.00;78.10
48994;DHT22;34804;49.214;12.276;2023-02-12T15:29:48;7.90;78.10
48994;DHT22;34804;49.214;12.276;2023-02-12T15:32:21;7.90;78.40
48994;DHT22;34804;49.214;12.276;2023-02-12T15:34:50;7.80;78.40
48994;DHT22;34804;49.214;12.276;2023-02-12T15:37:28;7.70;78.50
48994;DHT22;34804;49.214;12.276;2023-02-12T15:39:59;7.60;78.60
48994;DHT22;34804;49.214;12.276;2023-02-12T15:42:33;7.50;78.60
48994;DHT22;34804;49.214;12.276;2023-02-12T15:47:40;7.30;79.40
48994;DHT22;34804;49.214;12.276;2023-02-12T15:50:12;7.30;78.80
48994;DHT22;34804;49.214;12.276;2023-02-12T15:52:41;7.00;78.50
48994;DHT22;34804;49.214;12.276;2023-02-12T15:55:19;6.70;79.00
48994;DHT22;34804;49.214;12.276;2023-02-12T15:57:51;6.60;80.10
48994;DHT22;34804;49.214;12.276;2023-02-12T16:00:43;6.40;79.60
48994;DHT22;34804;49.214;12.276;2023-02-12T16:03:23;6.30;79.80
48994;DHT22;34804;49.214;12.276;2023-02-12T16:05:51;6.30;79.80
48994;DHT22;34804;49.214;12.276;2023-02-12T16:08:20;6.00;80.30
48994;DHT22;34804;49.214;12.276;2023-02-12T16:10:50;5.90;80.10
48994;DHT22;34804;49.214;12.276;2023-02-12T16:13:30;5.80;81.20
48994;DHT22;34804;49.214;12.276;2023-02-12T16:18:40;5.00;81.60
48994;DHT22;34804;49.214;12.276;2023-02-12T16:21:16;4.70;82.50
48994;DHT22;34804;49.214;12.276;2023-02-12T16:23:49;4.60;82.80
48994;DHT22;34804;49.214;12.276;2023-02-12T16:26:23;4.40;83.10
48994;DHT22;34804;49.214;12.276;2023-02-12T16:28:55;4.30;83.40
48994;DHT22;34804;49.214;12.276;2023-02-12T16:31:27;4.20;84.30
48994;DHT22;34804;49.214;12.276;2023-02-12T16:33:55;4.20;84.50
48994;DHT22;34804;49.214;12.276;2023-02-12T16:36:26;4.10;84.90
48994;DHT22;34804;49.214;12.276;2023-02-12T16:39:01;4.10;85.10
48994;DHT22;34804;49.214;12.276;2023-02-12T16:41:31;4.10;85.40
48994;DHT22;34804;49.214;12.276;2023-02-12T16:46:31;4.20;85.60
48994;DHT22;34804;49.214;12.276;2023-02-12T16:49:00;4.20;85.70
48994;DHT22;34804;49.214;12.276;2023-02-12T16:51:34;4.10;85.50
48994;DHT22;34804;49.214;12.276;2023-02-12T16:54:03;4.00;85.50
48994;DHT22;34804;49.214;12.276;2023-02-12T16:56:33;3.70;85.80
48994;DHT22;34804;49.214;12.276;2023-02-12T16:59:05;3.40;85.70
48994;DHT22;34804;49.214;12.276;2023-02-12T17:01:36;3.30;86.10
48994;DHT22;34804;49.214;12.276;2023-02-12T17:04:07;3.10;86.20
48994;DHT22;34804;49.214;12.276;2023-02-12T17:06:39;2.80;86.20
48994;DHT22;34804;49.214;12.276;2023-02-12T17:09:06;2.30;85.30
48994;DHT22;34804;49.214;12.276;2023-02-12T17:11:33;2.10;86.70
48994;DHT22;34804;49.214;12.276;2023-02-12T17:14:00;2.10;87.50
48994;DHT22;34804;49.214;12.276;2023-02-12T17:16:27;2.10;88.10
48994;DHT22;34804;49.214;12.276;2023-02-12T17:18:58;2.10;88.00
48994;DHT22;34804;49.214;12.276;2023-02-12T17:21:30;2.30;88.50
48994;DHT22;34804;49.214;12.276;2023-02-12T17:23:58;2.30;88.20
48994;DHT22;34804;49.214;12.276;2023-02-12T17:26:25;2.30;87.80
48994;DHT22;34804;49.214;12.276;2023-02-12T17:28:52;2.40;87.80
48994;DHT22;34804;49.214;12.276;2023-02-12T17:31:18;2.40;87.10
48994;DHT22;34804;49.214;12.276;2023-02-12T17:33:47;2.30;86.90
48994;DHT22;34804;49.214;12.276;2023-02-12T17:36:14;2.10;87.00
48994;DHT22;34804;49.214;12.276;2023-02-12T17:38:40;2.10;88.40
48994;DHT22;34804;49.214;12.276;2023-02-12T17:41:09;2.10;88.30
48994;DHT22;34804;49.214;12.276;2023-02-12T17:43:36;2.10;88.10
48994;DHT22;34804;49.214;12.276;2023-02-12T17:46:08;2.00;87.60
48994;DHT22;34804;49.214;12.276;2023-02-12T17:48:36;2.00;88.10
48994;DHT22;34804;49.214;12.276;2023-02-12T17:51:03;2.00;88.20
48994;DHT22;34804;49.214;12.276;2023-02-12T17:53:30;2.00;88.50
48994;DHT22;34804;49.214;12.276;2023-02-12T17:55:57;1.90;88.60
48994;DHT22;34804;49.214;12.276;2023-02-12T17:58:24;1.90;88.50
48994;DHT22;34804;49.214;12.276;2023-02-12T18:00:50;1.80;89.00
48994;DHT22;34804;49.214;12.276;2023-02-12T18:03:17;1.80;89.10
48994;DHT22;34804;49.214;12.276;2023-02-12T18:05:44;1.80;89.60
48994;DHT22;34804;49.214;12.276;2023-02-12T18:08:12;1.90;89.40
48994;DHT22;34804;49.214;12.276;2023-02-12T18:10:40;1.80;89.30
48994;DHT22;34804;49.214;12.276;2023-02-12T18:13:07;1.90;89.40
48994;DHT22;34804;49.214;12.276;2023-02-12T18:15:35;1.90;89.10
48994;DHT22;34804;49.214;12.276;2023-02-12T18:18:05;1.90;88.60